THY9MS LTCT-LTFM
Flight info
| Callsign | THY9MS |
|---|---|
| Flight time | 1h 51m |
| Altitude | 38000 |
| Route | ETISI UT331 YAVUZ UB374 ERZ UA4 ERSEN |
| Aircraft | A20N/M-SDE2E3FGHIRWXY/LB1 |
Departure
| Time | 2026-05-07 15:12 |
|---|---|
| Airport | Iğdır Airport (LTCT) |
Arrival
| Time | 2026-05-07 17:03 |
|---|---|
| Airport | İstanbul Airport (LTFM) |
| Time | Latitude | Longitude | Altitude | Speed | Heading |
|---|---|---|---|---|---|
| 2026-05-07 14:58 | 39.98000 | 43.87781 | 3097 ft | 0 kts | 39° |
| 2026-05-07 15:02 | 39.97994 | 43.87775 | 3097 ft | 1 kts | 26° |
| 2026-05-07 15:03 | 39.97987 | 43.87771 | 3097 ft | 1 kts | 12° |
| 2026-05-07 15:03 | 39.97979 | 43.87769 | 3097 ft | 1 kts | 359° |
| 2026-05-07 15:03 | 39.97971 | 43.87770 | 3100 ft | 3 kts | 354° |
| 2026-05-07 15:03 | 39.97952 | 43.87773 | 3096 ft | 3 kts | 348° |
| 2026-05-07 15:04 | 39.97942 | 43.87776 | 3099 ft | 1 kts | 343° |
| 2026-05-07 15:04 | 39.97935 | 43.87779 | 3097 ft | 1 kts | 339° |
| 2026-05-07 15:04 | 39.97928 | 43.87783 | 3096 ft | 1 kts | 334° |
| 2026-05-07 15:04 | 39.97921 | 43.87787 | 3096 ft | 1 kts | 329° |
| 2026-05-07 15:05 | 39.97914 | 43.87792 | 3099 ft | 1 kts | 324° |
| 2026-05-07 15:05 | 39.97912 | 43.87794 | 3096 ft | 0 kts | 322° |
| 2026-05-07 15:05 | 39.97913 | 43.87794 | 3096 ft | 1 kts | 322° |
| 2026-05-07 15:06 | 39.97918 | 43.87784 | 3096 ft | 2 kts | 308° |
| 2026-05-07 15:06 | 39.97930 | 43.87763 | 3098 ft | 4 kts | 308° |
| 2026-05-07 15:06 | 39.97936 | 43.87733 | 3098 ft | 4 kts | 265° |
| 2026-05-07 15:06 | 39.97920 | 43.87701 | 3097 ft | 5 kts | 232° |
| 2026-05-07 15:07 | 39.97888 | 43.87667 | 3098 ft | 7 kts | 218° |
| 2026-05-07 15:07 | 39.97842 | 43.87619 | 3100 ft | 10 kts | 220° |
| 2026-05-07 15:07 | 39.97782 | 43.87569 | 3097 ft | 12 kts | 195° |
| 2026-05-07 15:07 | 39.97704 | 43.87563 | 3097 ft | 7 kts | 141° |
| 2026-05-07 15:08 | 39.97686 | 43.87620 | 3094 ft | 9 kts | 111° |
| 2026-05-07 15:08 | 39.97644 | 43.87700 | 3093 ft | 13 kts | 130° |
| 2026-05-07 15:08 | 39.97575 | 43.87809 | 3090 ft | 18 kts | 128° |
| 2026-05-07 15:08 | 39.97492 | 43.87946 | 3092 ft | 21 kts | 128° |
| 2026-05-07 15:09 | 39.97393 | 43.88109 | 3092 ft | 24 kts | 129° |
| 2026-05-07 15:09 | 39.97282 | 43.88285 | 3087 ft | 28 kts | 129° |
| 2026-05-07 15:09 | 39.97157 | 43.88486 | 3088 ft | 29 kts | 129° |
| 2026-05-07 15:09 | 39.97035 | 43.88677 | 3082 ft | 28 kts | 130° |
| 2026-05-07 15:10 | 39.96908 | 43.88878 | 3083 ft | 27 kts | 129° |
| 2026-05-07 15:10 | 39.96783 | 43.89077 | 3078 ft | 26 kts | 129° |
| 2026-05-07 15:10 | 39.96679 | 43.89277 | 3070 ft | 27 kts | 111° |
| 2026-05-07 15:10 | 39.96643 | 43.89312 | 3067 ft | 1 kts | 223° |
| 2026-05-07 15:11 | 39.96643 | 43.89306 | 3068 ft | 1 kts | 256° |
| 2026-05-07 15:11 | 39.96645 | 43.89292 | 3070 ft | 2 kts | 284° |
| 2026-05-07 15:11 | 39.96658 | 43.89270 | 3069 ft | 11 kts | 307° |
| 2026-05-07 15:11 | 39.96860 | 43.88949 | 3074 ft | 79 kts | 309° |
| 2026-05-07 15:12 | 39.97330 | 43.88203 | 3087 ft | 131 kts | 309° |
| 2026-05-07 15:12 | 39.97973 | 43.87163 | 3321 ft | 155 kts | 309° |
| 2026-05-07 15:12 | 39.98718 | 43.86083 | 3826 ft | 166 kts | 311° |
| 2026-05-07 15:12 | 39.99583 | 43.84972 | 4297 ft | 184 kts | 312° |
| 2026-05-07 15:13 | 40.00486 | 43.83742 | 4855 ft | 194 kts | 309° |
| 2026-05-07 15:13 | 40.01223 | 43.82194 | 5304 ft | 210 kts | 299° |
| 2026-05-07 15:13 | 40.02082 | 43.80536 | 5668 ft | 233 kts | 310° |
| 2026-05-07 15:13 | 40.03020 | 43.78685 | 6140 ft | 257 kts | 297° |
| 2026-05-07 15:14 | 40.03794 | 43.76487 | 6867 ft | 271 kts | 294° |
| 2026-05-07 15:14 | 40.04541 | 43.74224 | 7994 ft | 271 kts | 292° |
| 2026-05-07 15:14 | 40.05294 | 43.71965 | 9082 ft | 273 kts | 292° |
| 2026-05-07 15:14 | 40.06059 | 43.69718 | 10106 ft | 277 kts | 292° |
| 2026-05-07 15:15 | 40.06878 | 43.67347 | 10680 ft | 298 kts | 292° |
| 2026-05-07 15:15 | 40.07770 | 43.64784 | 11058 ft | 322 kts | 292° |
| 2026-05-07 15:15 | 40.08728 | 43.62048 | 11675 ft | 334 kts | 292° |
| 2026-05-07 15:15 | 40.09705 | 43.59266 | 12583 ft | 338 kts | 292° |
| 2026-05-07 15:16 | 40.10694 | 43.56448 | 13457 ft | 344 kts | 292° |
| 2026-05-07 15:16 | 40.11680 | 43.53628 | 14293 ft | 348 kts | 292° |
| 2026-05-07 15:16 | 40.12691 | 43.50730 | 15107 ft | 352 kts | 292° |
| 2026-05-07 15:16 | 40.13713 | 43.47795 | 15916 ft | 356 kts | 292° |
| 2026-05-07 15:17 | 40.14745 | 43.44829 | 16716 ft | 360 kts | 292° |
| 2026-05-07 15:17 | 40.15775 | 43.41865 | 17498 ft | 364 kts | 292° |
| 2026-05-07 15:17 | 40.16827 | 43.38832 | 18263 ft | 368 kts | 293° |
| 2026-05-07 15:17 | 40.17894 | 43.35756 | 18962 ft | 373 kts | 293° |
| 2026-05-07 15:18 | 40.18928 | 43.32613 | 19654 ft | 375 kts | 287° |
| 2026-05-07 15:18 | 40.19471 | 43.29281 | 20314 ft | 377 kts | 273° |
| 2026-05-07 15:18 | 40.19379 | 43.25899 | 20969 ft | 379 kts | 260° |
| 2026-05-07 15:18 | 40.18796 | 43.22500 | 21627 ft | 382 kts | 256° |
| 2026-05-07 15:19 | 40.18180 | 43.19096 | 22292 ft | 386 kts | 256° |
| 2026-05-07 15:19 | 40.17563 | 43.15659 | 22941 ft | 390 kts | 256° |
| 2026-05-07 15:19 | 40.16950 | 43.12225 | 23572 ft | 394 kts | 256° |
| 2026-05-07 15:19 | 40.16326 | 43.08727 | 24152 ft | 396 kts | 256° |
| 2026-05-07 15:20 | 40.15701 | 43.05220 | 24799 ft | 396 kts | 256° |
| 2026-05-07 15:20 | 40.15075 | 43.01712 | 25404 ft | 397 kts | 256° |
| 2026-05-07 15:20 | 40.14443 | 42.98183 | 25941 ft | 399 kts | 256° |
| 2026-05-07 15:20 | 40.13808 | 42.94641 | 26495 ft | 401 kts | 255° |
| 2026-05-07 15:21 | 40.13169 | 42.91091 | 27030 ft | 402 kts | 255° |
| 2026-05-07 15:21 | 40.12527 | 42.87525 | 27557 ft | 404 kts | 255° |
| 2026-05-07 15:21 | 40.11881 | 42.83944 | 28039 ft | 406 kts | 255° |
| 2026-05-07 15:21 | 40.11228 | 42.80340 | 28513 ft | 409 kts | 255° |
| 2026-05-07 15:22 | 40.10576 | 42.76750 | 28981 ft | 411 kts | 255° |
| 2026-05-07 15:22 | 40.09911 | 42.73100 | 29394 ft | 413 kts | 255° |
| 2026-05-07 15:22 | 40.09243 | 42.69437 | 29816 ft | 415 kts | 255° |
| 2026-05-07 15:22 | 40.08570 | 42.65752 | 30235 ft | 418 kts | 255° |
| 2026-05-07 15:23 | 40.07892 | 42.62049 | 30566 ft | 420 kts | 255° |
| 2026-05-07 15:23 | 40.07207 | 42.58313 | 30850 ft | 424 kts | 255° |
| 2026-05-07 15:23 | 40.06516 | 42.54553 | 31182 ft | 427 kts | 255° |
| 2026-05-07 15:23 | 40.05820 | 42.50775 | 31565 ft | 428 kts | 255° |
| 2026-05-07 15:24 | 40.05134 | 42.47053 | 31980 ft | 428 kts | 255° |
| 2026-05-07 15:24 | 40.04505 | 42.43249 | 32404 ft | 429 kts | 259° |
| 2026-05-07 15:24 | 40.04165 | 42.39374 | 32831 ft | 429 kts | 263° |
| 2026-05-07 15:24 | 40.03912 | 42.35488 | 33246 ft | 429 kts | 263° |
| 2026-05-07 15:25 | 40.03652 | 42.31603 | 33667 ft | 429 kts | 263° |
| 2026-05-07 15:25 | 40.03390 | 42.27777 | 34073 ft | 428 kts | 263° |
| 2026-05-07 15:25 | 40.03123 | 42.23898 | 34414 ft | 428 kts | 263° |
| 2026-05-07 15:25 | 40.02855 | 42.20032 | 34758 ft | 427 kts | 263° |
| 2026-05-07 15:26 | 40.02585 | 42.16161 | 35058 ft | 427 kts | 263° |
| 2026-05-07 15:26 | 40.02314 | 42.12303 | 35360 ft | 427 kts | 263° |
| 2026-05-07 15:26 | 40.02042 | 42.08432 | 35652 ft | 427 kts | 263° |
| 2026-05-07 15:26 | 40.01773 | 42.04613 | 35945 ft | 427 kts | 263° |
| 2026-05-07 15:27 | 40.01499 | 42.00752 | 36233 ft | 427 kts | 263° |
| 2026-05-07 15:27 | 40.01223 | 41.96891 | 36507 ft | 427 kts | 263° |
| 2026-05-07 15:27 | 40.00947 | 41.93038 | 36782 ft | 427 kts | 263° |
| 2026-05-07 15:27 | 40.00669 | 41.89176 | 37051 ft | 426 kts | 263° |
| 2026-05-07 15:28 | 40.00390 | 41.85323 | 37317 ft | 426 kts | 263° |
| 2026-05-07 15:28 | 40.00110 | 41.81464 | 37580 ft | 426 kts | 263° |
| 2026-05-07 15:28 | 39.99831 | 41.77655 | 37836 ft | 426 kts | 263° |
| 2026-05-07 15:28 | 39.99549 | 41.73796 | 38090 ft | 426 kts | 263° |
| 2026-05-07 15:29 | 39.98998 | 41.66110 | 38169 ft | 425 kts | 263° |
| 2026-05-07 15:29 | 39.98451 | 41.58446 | 38170 ft | 425 kts | 263° |
| 2026-05-07 15:30 | 39.97898 | 41.50810 | 38174 ft | 425 kts | 263° |
| 2026-05-07 15:30 | 39.97335 | 41.43104 | 38176 ft | 425 kts | 263° |
| 2026-05-07 15:31 | 39.96771 | 41.35470 | 38181 ft | 426 kts | 263° |
| 2026-05-07 15:31 | 39.96198 | 41.27773 | 38189 ft | 426 kts | 263° |
| 2026-05-07 15:32 | 39.95680 | 41.20056 | 38191 ft | 427 kts | 266° |
| 2026-05-07 15:32 | 39.95674 | 41.12284 | 38187 ft | 428 kts | 268° |
| 2026-05-07 15:33 | 39.95679 | 41.04509 | 38189 ft | 429 kts | 268° |
| 2026-05-07 15:33 | 39.95675 | 40.96773 | 38178 ft | 429 kts | 268° |
| 2026-05-07 15:34 | 39.95666 | 40.88980 | 38173 ft | 430 kts | 268° |
| 2026-05-07 15:34 | 39.95652 | 40.81181 | 38170 ft | 430 kts | 268° |
| 2026-05-07 15:35 | 39.95633 | 40.73367 | 38168 ft | 431 kts | 268° |
| 2026-05-07 15:35 | 39.95610 | 40.65597 | 38164 ft | 431 kts | 268° |
| 2026-05-07 15:36 | 39.95582 | 40.57768 | 38158 ft | 432 kts | 268° |
| 2026-05-07 15:36 | 39.95550 | 40.49911 | 38162 ft | 432 kts | 268° |
| 2026-05-07 15:37 | 39.95511 | 40.42096 | 38160 ft | 433 kts | 268° |
| 2026-05-07 15:37 | 39.95467 | 40.34280 | 38159 ft | 433 kts | 268° |
| 2026-05-07 15:38 | 39.95418 | 40.26403 | 38155 ft | 434 kts | 268° |
| 2026-05-07 15:38 | 39.95364 | 40.18534 | 38159 ft | 434 kts | 268° |
| 2026-05-07 15:39 | 39.95304 | 40.10645 | 38158 ft | 435 kts | 268° |
| 2026-05-07 15:39 | 39.95240 | 40.02790 | 38163 ft | 435 kts | 268° |
| 2026-05-07 15:40 | 39.95169 | 39.94888 | 38160 ft | 436 kts | 268° |
| 2026-05-07 15:40 | 39.95092 | 39.86976 | 38167 ft | 436 kts | 268° |
| 2026-05-07 15:41 | 39.95006 | 39.79112 | 38161 ft | 436 kts | 269° |
| 2026-05-07 15:41 | 39.94915 | 39.71176 | 38166 ft | 437 kts | 268° |
| 2026-05-07 15:42 | 39.94818 | 39.63250 | 38165 ft | 437 kts | 269° |
| 2026-05-07 15:42 | 39.94718 | 39.55366 | 38160 ft | 438 kts | 269° |
| 2026-05-07 15:43 | 39.94613 | 39.47420 | 38161 ft | 438 kts | 269° |
| 2026-05-07 15:43 | 39.94505 | 39.39459 | 38164 ft | 439 kts | 269° |
| 2026-05-07 15:44 | 39.94390 | 39.31500 | 38165 ft | 439 kts | 269° |
| 2026-05-07 15:44 | 39.94270 | 39.23583 | 38164 ft | 440 kts | 269° |
| 2026-05-07 15:45 | 39.94144 | 39.15603 | 38168 ft | 440 kts | 269° |
| 2026-05-07 15:45 | 39.94013 | 39.07654 | 38167 ft | 440 kts | 269° |
| 2026-05-07 15:46 | 39.93829 | 38.95669 | 38167 ft | 441 kts | 269° |
| 2026-05-07 15:47 | 39.93654 | 38.87682 | 38161 ft | 441 kts | 266° |
| 2026-05-07 15:47 | 39.93120 | 38.79755 | 38160 ft | 441 kts | 265° |
| 2026-05-07 15:48 | 39.92590 | 38.71792 | 38166 ft | 441 kts | 265° |
| 2026-05-07 15:48 | 39.92144 | 38.65166 | 38163 ft | 441 kts | 265° |
| 2026-05-07 15:49 | 39.91603 | 38.57204 | 38154 ft | 440 kts | 265° |
| 2026-05-07 15:49 | 39.91059 | 38.49294 | 38155 ft | 440 kts | 265° |
| 2026-05-07 15:50 | 39.90507 | 38.41355 | 38153 ft | 440 kts | 265° |
| 2026-05-07 15:50 | 39.89949 | 38.33408 | 38156 ft | 440 kts | 265° |
| 2026-05-07 15:51 | 39.89386 | 38.25458 | 38157 ft | 440 kts | 265° |
| 2026-05-07 15:51 | 39.88820 | 38.17553 | 38152 ft | 440 kts | 265° |
| 2026-05-07 15:52 | 39.88246 | 38.09611 | 38150 ft | 439 kts | 265° |
| 2026-05-07 15:52 | 39.87668 | 38.01684 | 38146 ft | 439 kts | 265° |
| 2026-05-07 15:53 | 39.87087 | 37.93768 | 38144 ft | 439 kts | 265° |
| 2026-05-07 15:53 | 39.86511 | 37.85896 | 38144 ft | 439 kts | 266° |
| 2026-05-07 15:54 | 39.85927 | 37.77980 | 38136 ft | 438 kts | 266° |
| 2026-05-07 15:54 | 39.85339 | 37.70108 | 38137 ft | 439 kts | 266° |
| 2026-05-07 15:55 | 39.84742 | 37.62181 | 38139 ft | 439 kts | 265° |
| 2026-05-07 15:55 | 39.84144 | 37.54319 | 38149 ft | 439 kts | 265° |
| 2026-05-07 15:56 | 39.83536 | 37.46395 | 38149 ft | 439 kts | 265° |
| 2026-05-07 15:56 | 39.82924 | 37.38525 | 38149 ft | 439 kts | 265° |
| 2026-05-07 15:57 | 39.82297 | 37.30612 | 38167 ft | 439 kts | 265° |
| 2026-05-07 15:57 | 39.81663 | 37.22687 | 38179 ft | 439 kts | 265° |
| 2026-05-07 15:58 | 39.81029 | 37.14810 | 38193 ft | 439 kts | 265° |
| 2026-05-07 15:58 | 39.80387 | 37.06896 | 38208 ft | 439 kts | 265° |
| 2026-05-07 15:59 | 39.79744 | 36.99046 | 38219 ft | 439 kts | 265° |
| 2026-05-07 15:59 | 39.79283 | 36.91135 | 38220 ft | 437 kts | 272° |
| 2026-05-07 16:00 | 39.79762 | 36.83279 | 38218 ft | 434 kts | 281° |
| 2026-05-07 16:00 | 39.80826 | 36.75576 | 38205 ft | 431 kts | 281° |
| 2026-05-07 16:01 | 39.81860 | 36.67943 | 38192 ft | 431 kts | 281° |
| 2026-05-07 16:01 | 39.82896 | 36.60252 | 38173 ft | 430 kts | 281° |
| 2026-05-07 16:02 | 39.83925 | 36.52569 | 38167 ft | 430 kts | 282° |
| 2026-05-07 16:02 | 39.84944 | 36.44933 | 38148 ft | 430 kts | 281° |
| 2026-05-07 16:03 | 39.85963 | 36.37252 | 38142 ft | 430 kts | 282° |
| 2026-05-07 16:03 | 39.87037 | 36.29631 | 38141 ft | 429 kts | 283° |
| 2026-05-07 16:04 | 39.88138 | 36.21998 | 38139 ft | 429 kts | 282° |
| 2026-05-07 16:04 | 39.89144 | 36.14338 | 38134 ft | 428 kts | 282° |
| 2026-05-07 16:05 | 39.90145 | 36.06681 | 38138 ft | 428 kts | 282° |
| 2026-05-07 16:05 | 39.91140 | 35.99076 | 38132 ft | 428 kts | 282° |
| 2026-05-07 16:06 | 39.92140 | 35.91420 | 38135 ft | 427 kts | 282° |
| 2026-05-07 16:06 | 39.93131 | 35.83781 | 38128 ft | 428 kts | 282° |
| 2026-05-07 16:07 | 39.94118 | 35.76134 | 38136 ft | 427 kts | 282° |
| 2026-05-07 16:07 | 39.95093 | 35.68534 | 38136 ft | 427 kts | 282° |
| 2026-05-07 16:08 | 39.96069 | 35.60890 | 38136 ft | 427 kts | 282° |
| 2026-05-07 16:08 | 39.97039 | 35.53252 | 38133 ft | 427 kts | 282° |
| 2026-05-07 16:09 | 39.98004 | 35.45609 | 38136 ft | 427 kts | 282° |
| 2026-05-07 16:09 | 39.98959 | 35.38007 | 38135 ft | 427 kts | 282° |
| 2026-05-07 16:10 | 39.99894 | 35.30361 | 38146 ft | 427 kts | 281° |
| 2026-05-07 16:10 | 40.00797 | 35.22714 | 38140 ft | 426 kts | 281° |
| 2026-05-07 16:11 | 40.01701 | 35.15049 | 38142 ft | 426 kts | 281° |
| 2026-05-07 16:11 | 40.02595 | 35.07444 | 38137 ft | 426 kts | 281° |
| 2026-05-07 16:12 | 40.03489 | 34.99795 | 38143 ft | 426 kts | 281° |
| 2026-05-07 16:12 | 40.04381 | 34.92126 | 38141 ft | 426 kts | 281° |
| 2026-05-07 16:13 | 40.05260 | 34.84521 | 38141 ft | 426 kts | 281° |
| 2026-05-07 16:13 | 40.06138 | 34.76876 | 38146 ft | 425 kts | 281° |
| 2026-05-07 16:14 | 40.07010 | 34.69242 | 38143 ft | 425 kts | 281° |
| 2026-05-07 16:14 | 40.07878 | 34.61593 | 38131 ft | 425 kts | 281° |
| 2026-05-07 16:15 | 40.08734 | 34.54000 | 38136 ft | 425 kts | 281° |
| 2026-05-07 16:15 | 40.09594 | 34.46336 | 38134 ft | 425 kts | 281° |
| 2026-05-07 16:16 | 40.10442 | 34.38721 | 38133 ft | 425 kts | 281° |
| 2026-05-07 16:16 | 40.11290 | 34.31067 | 38129 ft | 426 kts | 281° |
| 2026-05-07 16:17 | 40.12134 | 34.23397 | 38136 ft | 426 kts | 281° |
| 2026-05-07 16:17 | 40.12968 | 34.15770 | 38133 ft | 426 kts | 281° |
| 2026-05-07 16:18 | 40.13801 | 34.08112 | 38133 ft | 425 kts | 281° |
| 2026-05-07 16:18 | 40.14628 | 34.00453 | 38127 ft | 425 kts | 281° |
| 2026-05-07 16:19 | 40.15477 | 33.92791 | 38129 ft | 424 kts | 282° |
| 2026-05-07 16:19 | 40.16538 | 33.85251 | 38132 ft | 424 kts | 283° |
| 2026-05-07 16:20 | 40.17506 | 33.77639 | 38129 ft | 425 kts | 281° |
| 2026-05-07 16:20 | 40.18258 | 33.69956 | 38128 ft | 424 kts | 280° |
| 2026-05-07 16:21 | 40.19016 | 33.62320 | 38135 ft | 424 kts | 281° |
| 2026-05-07 16:21 | 40.19792 | 33.54660 | 38146 ft | 424 kts | 281° |
| 2026-05-07 16:22 | 40.20563 | 33.47044 | 38140 ft | 424 kts | 281° |
| 2026-05-07 16:22 | 40.21332 | 33.39387 | 38145 ft | 423 kts | 281° |
| 2026-05-07 16:23 | 40.22094 | 33.31759 | 38155 ft | 423 kts | 280° |
| 2026-05-07 16:23 | 40.22847 | 33.24160 | 38152 ft | 423 kts | 280° |
| 2026-05-07 16:24 | 40.23599 | 33.16516 | 38146 ft | 423 kts | 280° |
| 2026-05-07 16:24 | 40.24661 | 33.08961 | 38161 ft | 420 kts | 288° |
| 2026-05-07 16:25 | 40.26472 | 33.01756 | 38162 ft | 418 kts | 291° |
| 2026-05-07 16:25 | 40.28351 | 32.94523 | 38153 ft | 418 kts | 291° |
| 2026-05-07 16:26 | 40.30222 | 32.87287 | 38166 ft | 418 kts | 291° |
| 2026-05-07 16:26 | 40.32087 | 32.80059 | 38161 ft | 418 kts | 291° |
| 2026-05-07 16:27 | 40.33939 | 32.72864 | 38163 ft | 418 kts | 291° |
| 2026-05-07 16:27 | 40.35803 | 32.65603 | 38161 ft | 418 kts | 291° |
| 2026-05-07 16:28 | 40.37647 | 32.58399 | 38174 ft | 419 kts | 291° |
| 2026-05-07 16:28 | 40.39500 | 32.51135 | 38168 ft | 419 kts | 291° |
| 2026-05-07 16:29 | 40.41335 | 32.43924 | 38167 ft | 419 kts | 291° |
| 2026-05-07 16:29 | 40.43178 | 32.36659 | 38166 ft | 418 kts | 291° |
| 2026-05-07 16:30 | 40.45004 | 32.29435 | 38168 ft | 418 kts | 291° |
| 2026-05-07 16:30 | 40.46830 | 32.22192 | 38162 ft | 418 kts | 291° |
| 2026-05-07 16:31 | 40.48763 | 32.15005 | 38165 ft | 416 kts | 294° |
| 2026-05-07 16:31 | 40.50923 | 32.07933 | 38158 ft | 416 kts | 294° |
| 2026-05-07 16:32 | 40.53038 | 32.00900 | 38164 ft | 416 kts | 294° |
| 2026-05-07 16:32 | 40.55141 | 31.93787 | 38148 ft | 416 kts | 293° |
| 2026-05-07 16:33 | 40.57216 | 31.86730 | 38153 ft | 416 kts | 293° |
| 2026-05-07 16:33 | 40.59156 | 31.79538 | 38147 ft | 417 kts | 290° |
| 2026-05-07 16:34 | 40.60958 | 31.72264 | 38146 ft | 417 kts | 290° |
| 2026-05-07 16:34 | 40.62754 | 31.65024 | 38150 ft | 418 kts | 290° |
| 2026-05-07 16:35 | 40.64553 | 31.57737 | 38153 ft | 418 kts | 290° |
| 2026-05-07 16:35 | 40.66047 | 31.51660 | 38151 ft | 419 kts | 290° |
| 2026-05-07 16:36 | 40.68132 | 31.43159 | 38142 ft | 419 kts | 290° |
| 2026-05-07 16:36 | 40.69632 | 31.37020 | 38140 ft | 420 kts | 290° |
| 2026-05-07 16:36 | 40.70514 | 31.33404 | 38036 ft | 419 kts | 290° |
| 2026-05-07 16:37 | 40.71404 | 31.29745 | 37758 ft | 417 kts | 290° |
| 2026-05-07 16:37 | 40.72290 | 31.26097 | 37488 ft | 416 kts | 290° |
| 2026-05-07 16:37 | 40.73173 | 31.22460 | 37221 ft | 417 kts | 290° |
| 2026-05-07 16:37 | 40.74057 | 31.18817 | 36946 ft | 418 kts | 291° |
| 2026-05-07 16:38 | 40.74944 | 31.15151 | 36384 ft | 420 kts | 291° |
| 2026-05-07 16:38 | 40.75837 | 31.11455 | 35595 ft | 424 kts | 291° |
| 2026-05-07 16:38 | 40.76731 | 31.07744 | 34925 ft | 424 kts | 291° |
| 2026-05-07 16:38 | 40.77611 | 31.04085 | 34119 ft | 426 kts | 291° |
| 2026-05-07 16:39 | 40.78509 | 31.00352 | 33298 ft | 426 kts | 291° |
| 2026-05-07 16:39 | 40.79404 | 30.96623 | 32460 ft | 425 kts | 291° |
| 2026-05-07 16:39 | 40.80298 | 30.92895 | 31617 ft | 426 kts | 290° |
| 2026-05-07 16:39 | 40.81196 | 30.89146 | 30703 ft | 428 kts | 290° |
| 2026-05-07 16:40 | 40.82095 | 30.85386 | 29715 ft | 431 kts | 290° |
| 2026-05-07 16:40 | 40.82982 | 30.81664 | 28920 ft | 428 kts | 290° |
| 2026-05-07 16:40 | 40.83867 | 30.77937 | 28439 ft | 418 kts | 290° |
| 2026-05-07 16:40 | 40.84725 | 30.74315 | 28046 ft | 408 kts | 290° |
| 2026-05-07 16:41 | 40.85569 | 30.70760 | 27428 ft | 404 kts | 290° |
| 2026-05-07 16:41 | 40.86353 | 30.67223 | 26942 ft | 398 kts | 286° |
| 2026-05-07 16:41 | 40.86846 | 30.63660 | 26712 ft | 391 kts | 280° |
| 2026-05-07 16:41 | 40.87179 | 30.60124 | 26391 ft | 395 kts | 281° |
| 2026-05-07 16:42 | 40.87538 | 30.56510 | 25987 ft | 396 kts | 281° |
| 2026-05-07 16:42 | 40.87777 | 30.52842 | 25698 ft | 405 kts | 276° |
| 2026-05-07 16:42 | 40.87864 | 30.49081 | 25449 ft | 409 kts | 274° |
| 2026-05-07 16:42 | 40.87918 | 30.45335 | 25210 ft | 406 kts | 274° |
| 2026-05-07 16:43 | 40.87985 | 30.41607 | 24961 ft | 405 kts | 275° |
| 2026-05-07 16:43 | 40.88068 | 30.37885 | 24721 ft | 404 kts | 275° |
| 2026-05-07 16:43 | 40.88163 | 30.34224 | 24499 ft | 403 kts | 275° |
| 2026-05-07 16:43 | 40.88265 | 30.30523 | 24263 ft | 402 kts | 275° |
| 2026-05-07 16:44 | 40.88368 | 30.26837 | 24030 ft | 400 kts | 275° |
| 2026-05-07 16:44 | 40.88470 | 30.23159 | 23803 ft | 399 kts | 275° |
| 2026-05-07 16:44 | 40.88570 | 30.19484 | 23308 ft | 400 kts | 275° |
| 2026-05-07 16:44 | 40.88669 | 30.15811 | 22682 ft | 398 kts | 275° |
| 2026-05-07 16:45 | 40.88764 | 30.12223 | 22098 ft | 394 kts | 275° |
| 2026-05-07 16:45 | 40.88858 | 30.08618 | 21486 ft | 390 kts | 275° |
| 2026-05-07 16:45 | 40.88950 | 30.05047 | 20888 ft | 386 kts | 275° |
| 2026-05-07 16:45 | 40.89041 | 30.01508 | 20289 ft | 383 kts | 275° |
| 2026-05-07 16:46 | 40.89129 | 29.97998 | 19697 ft | 379 kts | 275° |
| 2026-05-07 16:46 | 40.89216 | 29.94517 | 19059 ft | 378 kts | 274° |
| 2026-05-07 16:46 | 40.89300 | 29.91106 | 18510 ft | 374 kts | 274° |
| 2026-05-07 16:46 | 40.89384 | 29.87671 | 17869 ft | 371 kts | 274° |
| 2026-05-07 16:47 | 40.89446 | 29.85121 | 17443 ft | 368 kts | 274° |
| 2026-05-07 16:47 | 40.89528 | 29.81751 | 16853 ft | 365 kts | 274° |
| 2026-05-07 16:47 | 40.89608 | 29.78409 | 16267 ft | 361 kts | 274° |
| 2026-05-07 16:47 | 40.89685 | 29.75107 | 15693 ft | 359 kts | 274° |
| 2026-05-07 16:48 | 40.89761 | 29.71821 | 15117 ft | 356 kts | 274° |
| 2026-05-07 16:48 | 40.89834 | 29.68564 | 14552 ft | 354 kts | 274° |
| 2026-05-07 16:48 | 40.89906 | 29.65359 | 13990 ft | 352 kts | 274° |
| 2026-05-07 16:48 | 40.89977 | 29.62130 | 13390 ft | 350 kts | 274° |
| 2026-05-07 16:49 | 40.90046 | 29.58937 | 12828 ft | 346 kts | 274° |
| 2026-05-07 16:49 | 40.90114 | 29.55772 | 12273 ft | 343 kts | 274° |
| 2026-05-07 16:49 | 40.90181 | 29.52627 | 11587 ft | 344 kts | 274° |
| 2026-05-07 16:49 | 40.90246 | 29.49493 | 11195 ft | 336 kts | 274° |
| 2026-05-07 16:50 | 40.90308 | 29.46451 | 11057 ft | 331 kts | 274° |
| 2026-05-07 16:50 | 40.90371 | 29.43381 | 11018 ft | 335 kts | 274° |
| 2026-05-07 16:50 | 40.90432 | 29.40334 | 10996 ft | 324 kts | 274° |
| 2026-05-07 16:50 | 40.90485 | 29.37535 | 10891 ft | 312 kts | 274° |
| 2026-05-07 16:51 | 40.90539 | 29.34671 | 10766 ft | 298 kts | 274° |
| 2026-05-07 16:51 | 40.90588 | 29.32041 | 10657 ft | 285 kts | 274° |
| 2026-05-07 16:51 | 40.90636 | 29.29509 | 10501 ft | 274 kts | 275° |
| 2026-05-07 16:51 | 40.90684 | 29.26998 | 10138 ft | 272 kts | 275° |
| 2026-05-07 16:52 | 40.90733 | 29.24508 | 9768 ft | 270 kts | 275° |
| 2026-05-07 16:52 | 40.90781 | 29.22031 | 9362 ft | 268 kts | 275° |
| 2026-05-07 16:52 | 40.90826 | 29.19570 | 8999 ft | 265 kts | 275° |
| 2026-05-07 16:52 | 40.90870 | 29.17137 | 8627 ft | 264 kts | 275° |
| 2026-05-07 16:53 | 40.90912 | 29.14754 | 8294 ft | 260 kts | 275° |
| 2026-05-07 16:53 | 40.90954 | 29.12353 | 8160 ft | 267 kts | 275° |
| 2026-05-07 16:53 | 40.91001 | 29.09851 | 8036 ft | 274 kts | 275° |
| 2026-05-07 16:53 | 40.91045 | 29.07348 | 7876 ft | 270 kts | 275° |
| 2026-05-07 16:54 | 40.91086 | 29.04872 | 7553 ft | 268 kts | 275° |
| 2026-05-07 16:54 | 40.91131 | 29.02412 | 7168 ft | 267 kts | 276° |
| 2026-05-07 16:54 | 40.91313 | 29.00493 | 6854 ft | 263 kts | 285° |
| 2026-05-07 16:54 | 40.91770 | 28.98408 | 6526 ft | 260 kts | 291° |
| 2026-05-07 16:55 | 40.92351 | 28.96145 | 6119 ft | 259 kts | 291° |
| 2026-05-07 16:55 | 40.92920 | 28.93890 | 5717 ft | 257 kts | 290° |
| 2026-05-07 16:55 | 40.93474 | 28.91675 | 5331 ft | 256 kts | 290° |
| 2026-05-07 16:55 | 40.94031 | 28.89442 | 4946 ft | 255 kts | 290° |
| 2026-05-07 16:56 | 40.94586 | 28.87214 | 4512 ft | 255 kts | 289° |
| 2026-05-07 16:56 | 40.95142 | 28.84984 | 4159 ft | 253 kts | 289° |
| 2026-05-07 16:56 | 40.96254 | 28.80506 | 4028 ft | 256 kts | 289° |
| 2026-05-07 16:57 | 40.96873 | 28.78297 | 4022 ft | 255 kts | 301° |
| 2026-05-07 16:57 | 40.98145 | 28.76715 | 4029 ft | 256 kts | 335° |
| 2026-05-07 16:57 | 40.99882 | 28.76178 | 4028 ft | 257 kts | 354° |
| 2026-05-07 16:57 | 41.01655 | 28.76109 | 4023 ft | 258 kts | 359° |
| 2026-05-07 16:58 | 41.03416 | 28.76105 | 4023 ft | 242 kts | 357° |
| 2026-05-07 16:58 | 41.05023 | 28.76073 | 4029 ft | 220 kts | 358° |
| 2026-05-07 16:58 | 41.06498 | 28.76046 | 4023 ft | 204 kts | 357° |
| 2026-05-07 16:58 | 41.07879 | 28.76019 | 3937 ft | 194 kts | 357° |
| 2026-05-07 16:59 | 41.09221 | 28.75993 | 3693 ft | 193 kts | 357° |
| 2026-05-07 16:59 | 41.10559 | 28.75967 | 3437 ft | 191 kts | 358° |
| 2026-05-07 16:59 | 41.11881 | 28.75942 | 3224 ft | 186 kts | 358° |
| 2026-05-07 16:59 | 41.13157 | 28.75918 | 2950 ft | 181 kts | 358° |
| 2026-05-07 17:00 | 41.14361 | 28.75895 | 2705 ft | 169 kts | 358° |
| 2026-05-07 17:00 | 41.15489 | 28.75874 | 2483 ft | 155 kts | 358° |
| 2026-05-07 17:00 | 41.16511 | 28.75855 | 2287 ft | 144 kts | 358° |
| 2026-05-07 17:00 | 41.17553 | 28.75834 | 2096 ft | 147 kts | 359° |
| 2026-05-07 17:01 | 41.18550 | 28.75816 | 1883 ft | 143 kts | 359° |
| 2026-05-07 17:01 | 41.19544 | 28.75792 | 1727 ft | 143 kts | 358° |
| 2026-05-07 17:01 | 41.20531 | 28.75756 | 1475 ft | 141 kts | 359° |
| 2026-05-07 17:01 | 41.21509 | 28.75742 | 1235 ft | 139 kts | 0° |
| 2026-05-07 17:02 | 41.22476 | 28.75736 | 1031 ft | 138 kts | 359° |
| 2026-05-07 17:02 | 41.23443 | 28.75716 | 816 ft | 137 kts | 359° |
| 2026-05-07 17:02 | 41.24390 | 28.75696 | 654 ft | 135 kts | 359° |
| 2026-05-07 17:02 | 41.25318 | 28.75686 | 483 ft | 134 kts | 358° |
| 2026-05-07 17:03 | 41.26265 | 28.75670 | 362 ft | 137 kts | 358° |
| 2026-05-07 17:03 | 41.27132 | 28.75646 | 299 ft | 100 kts | 359° |
| 2026-05-07 17:03 | 41.27626 | 28.75646 | 286 ft | 42 kts | 360° |
| 2026-05-07 17:03 | 41.27853 | 28.75637 | 274 ft | 34 kts | 357° |
| 2026-05-07 17:04 | 41.28042 | 28.75578 | 262 ft | 4 kts | 334° |
| 2026-05-07 17:04 | 41.28089 | 28.75547 | 260 ft | 11 kts | 334° |
| 2026-05-07 17:04 | 41.28165 | 28.75476 | 258 ft | 16 kts | 302° |
| 2026-05-07 17:04 | 41.28119 | 28.75364 | 259 ft | 17 kts | 191° |
| 2026-05-07 17:05 | 41.28002 | 28.75366 | 264 ft | 17 kts | 179° |
| 2026-05-07 17:05 | 41.27886 | 28.75365 | 271 ft | 16 kts | 180° |
| 2026-05-07 17:05 | 41.27778 | 28.75365 | 279 ft | 15 kts | 180° |
| 2026-05-07 17:05 | 41.27677 | 28.75364 | 285 ft | 14 kts | 180° |
| 2026-05-07 17:06 | 41.27580 | 28.75363 | 292 ft | 14 kts | 180° |
| 2026-05-07 17:06 | 41.27477 | 28.75365 | 294 ft | 15 kts | 178° |
| 2026-05-07 17:06 | 41.27363 | 28.75369 | 297 ft | 17 kts | 178° |
| 2026-05-07 17:06 | 41.27235 | 28.75370 | 300 ft | 20 kts | 181° |
| 2026-05-07 17:07 | 41.27093 | 28.75365 | 302 ft | 22 kts | 181° |
| 2026-05-07 17:07 | 41.26932 | 28.75359 | 307 ft | 24 kts | 181° |
| 2026-05-07 17:07 | 41.26760 | 28.75366 | 307 ft | 25 kts | 179° |
| 2026-05-07 17:07 | 41.26600 | 28.75327 | 309 ft | 18 kts | 233° |
| 2026-05-07 17:08 | 41.26590 | 28.75200 | 312 ft | 13 kts | 261° |
| 2026-05-07 17:08 | 41.26580 | 28.75078 | 313 ft | 15 kts | 268° |
| 2026-05-07 17:08 | 41.26591 | 28.74982 | 313 ft | 0 kts | 285° |